Station info - map view · info · telemetry · weather · raw · status · beacons · messages · bulletins · browse · moving · my account
Callsign, ship name or locator: Clear       
It is possible to search using wildcards (*?) after a prefix. Example: OH*
APRS station IZ2UQH-10 - show graphs
Map loading...
Comment: Fabio - iz2uqh@crlnet.it
Mic-E message: In service
Last status: CRLNet Voyager v1.06 14.7V
Last beacon: http://CRLNet.it
Location: 45°39.09' N 10°12.22' E - locator JN55CP46KI - show map - static map
3.3 miles North bearing 349° from Concesio, Provincia di Brescia, Lombardy, Italy [?]
4.5 miles Northwest bearing 336° from Bovezzo, Provincia di Brescia, Lombardy, Italy
41.2 miles West bearing 292° from Verona, Provincia di Verona, Veneto, Italy
50.7 miles East bearing 75° from Milan, Province of Milan, Lombardy, Italy
Last position: 2017-04-24 09:20:00 EDT (3d 9h12m ago)
2017-04-24 15:20:00 CEST local time at Concesio, Italy [?]
Altitude: 840 ft
Course: 56°
Speed: 9 MPH
Last path: IZ2UQH-10>T5SY09 via WIDE1-1,WIDE2-1,qAR,IR2S (good)
Positions stored: 4924
Packet rate: 30 seconds between packets on average during 652 seconds.
This station is transmitting packets at a high rate, which can cause congestion in the APRS network.
Other SSIDs: IZ2UQH-1 IZ2UQH-7 IZ2UQH-9
Stations near current position of IZ2UQH-10 - show more
callsign distance last heard - EDT      callsign distance last heard - EDT
IZ2UQH-10.5 miles 340°2017-04-27 18:31:25 IZ2UQH-90.8 miles 45°2017-04-27 02:23:03
IR2DM3.1 miles 207°2017-04-27 18:08:14 IR2S3.2 miles 67°2017-04-27 18:30:21
IR2UDK4.1 miles 136°2017-04-27 18:08:09 IU2GPC-104.6 miles 159°2017-04-19 12:15:48
IZ2SLP-14.8 miles 160°2017-04-16 13:57:23 IZ2UTA-94.9 miles 210°2017-04-27 10:15:03
IZ2FTR-95.4 miles 149°2017-04-27 06:57:10 IZ2GAJ-105.4 miles 149°2017-04-27 04:26:11
IW2KPM-ND5.5 miles 294°2017-04-27 18:22:14 HB9FIK-15.5 miles 294°2017-04-16 18:49:22
IZ2PRA-105.8 miles 166°2017-03-31 16:35:54 IZ2UTA-126.0 miles 171°2017-04-08 12:07:55
IZ2UPQ6.1 miles 170°2017-04-25 06:46:14 IZ2UTA-106.1 miles 170°2017-04-18 08:43:53
IZ2PRA-76.3 miles 258°2017-04-12 10:04:14 EL-IZ2PRA6.3 miles 248°2017-04-25 16:10:42
IR2BW6.3 miles 147°2017-04-27 18:07:49 IR2BY6.6 miles 303°2017-04-27 18:26:06
Stations which heard IZ2UQH-10 directly on radio –
callsign pkts first heard - EDT last heard longest (tx => rx) longest at - EDT
IK2CHZ 3 2017-04-08 01:51:29 2017-04-14 10:30:46 JN55CP > JN45UI 33.7 miles 233° 2017-04-14 10:30:46
IR2AO 107 2017-04-04 01:42:50 2017-04-24 09:11:51 JN55DP > JN45PM 47.6 miles 260° 2017-04-21 08:04:42
IR2UBX-11 1 2017-04-04 05:02:16 2017-04-04 05:02:16 JN55DP > JN45MQ 60.3 miles 273° 2017-04-04 05:02:16
IK3XTM 1 2017-04-04 07:48:57 2017-04-04 07:48:57 JN55GN > JN55LP 19.9 miles 76° 2017-04-04 07:48:57
IR2AL-11 1 2017-04-04 05:02:15 2017-04-04 05:02:15 JN55DP > JN45OL 53.8 miles 258° 2017-04-04 05:02:15
IR2BQ 420 2017-04-04 01:43:19 2017-04-24 07:58:33 JN55CQ > JN55CN 11.1 miles 174° 2017-04-09 16:43:03
IR2BZ 139 2017-04-04 02:01:58 2017-04-22 01:59:09 JN55EM > JN45XO 19.6 miles 287° 2017-04-04 09:31:48
IR2BT 93 2017-04-04 05:03:36 2017-04-21 08:01:40 JN55DP > JN55FO 7.4 miles 105° 2017-04-04 05:03:36
IR2Y 69 2017-04-04 02:03:45 2017-04-21 08:15:06 JN55CP > JN55EK 18.3 miles 153° 2017-04-13 08:13:44
IW2GOB-2 3 2017-04-04 04:59:32 2017-04-13 06:10:14 JN55DP > JN45SH 44.0 miles 236° 2017-04-04 04:59:32
IR2S 855 2017-04-04 01:42:51 2017-04-24 09:19:49 JN55GN > JN55DQ 16.0 miles 301° 2017-04-21 05:05:28
IR2CV 3 2017-04-04 10:05:34 2017-04-21 05:05:17 JN55CO > JN55JC 45.5 miles 143° 2017-04-04 10:05:34
IR2BW 726 2017-04-04 01:42:50 2017-04-24 09:19:49 JN55CP > JN55DN 7.2 miles 148° 2017-04-24 02:55:09
IR2DD 82 2017-04-04 05:17:45 2017-04-21 07:49:33 JN55FP > JN55GL 13.8 miles 157° 2017-04-21 07:49:33
IQ2CY 169 2017-04-04 03:29:55 2017-04-24 07:55:36 JN55FO > JN55AD 38.2 miles 218° 2017-04-21 04:51:53
IQ4SC 3 2017-04-12 02:11:36 2017-04-18 08:28:01 JN55CP > JN54IO 77.0 miles 162° 2017-04-12 02:21:28
IR2BY 3 2017-04-14 06:07:26 2017-04-22 01:57:59 JN55CP > JN55BQ 6.6 miles 305° 2017-04-14 06:07:26
IR2UCL 37 2017-04-04 04:50:54 2017-04-24 03:56:43 JN55DP > JN45UP 29.8 miles 271° 2017-04-21 04:27:59
IU2GOH 271 2017-04-04 01:48:28 2017-04-24 07:58:22 JN55FN > JN55BL 16.3 miles 248° 2017-04-04 08:36:05
IQ3VO 10 2017-04-04 07:42:46 2017-04-21 05:03:21 JN55DM > JN55MQ 37.8 miles 70° 2017-04-04 09:35:05

Only position packets which were originated by the station are shown here. The range statistics show some extra long hops, because some digipeaters do not correctly add themselves to the digipeater path. Please check the raw packets.
About this site
This page shows real-time information collected from the Automatic Position Reporting System Internet network (APRS-IS). APRS is used by amateur (ham) radio operators to transmit real-time position information, weather data, telemetry and messages over the radio. A vehicle equipped with a GPS receiver, a VHF transmitter or HF transceiver and a small computer device called a tracker transmits it's location, speed and course in a small data packet, which is then received by a nearby iGate receiving site which forwards the packet on the Internet. Systems connected to the Internet can send information on the APRS-IS without a radio transmitter, or collect and display information transmitted anywhere in the world.
FAQ · Blog · Discussion group · Linking to aprs.fi · AIS sites · Service status · Database statistics · Advertising on aprs.fi · Technical details · API · Change log · Planned changes · Credits and thanks · Terms Of Service · iPhone/iPad APRS